Time;durP1;ratioP1;P1;durP2;ratioP2;P2;SDS_P1;SDS_P2;PMS_P1;PMS_P2;Temp;Humidity;BMP_temperature;BMP_pressure;BME280_temperature;BME280_humidity;BME280_pressure;Samples;Min_cycle;Max_cycle;Signal;HPM_P1;HPM_P2
2022/03/08 00:00:32;;;;;;;15.77;8.57;;;;;;;;;;7378301;19;20410;-75
2022/03/08 00:02:57;;;;;;;17.38;9.38;;;;;;;;;;7384100;19;20002;-72
2022/03/08 00:05:23;;;;;;;19.83;8.65;;;;;;;;;;7368052;19;20029;-77
2022/03/08 00:07:49;;;;;;;14.43;8.40;;;;;;;;;;7381876;19;19995;-73
2022/03/08 00:10:16;;;;;;;17.25;9.48;;;;;;;;;;7379996;19;20907;-73
2022/03/08 00:12:41;;;;;;;14.57;8.38;;;;;;;;;;7370335;19;20014;-77
2022/03/08 00:15:08;;;;;;;14.95;8.35;;;;;;;;;;7374295;19;20062;-73
2022/03/08 00:17:33;;;;;;;16.23;8.35;;;;;;;;;;7373945;19;20438;-72
2022/03/08 00:19:58;;;;;;;15.40;8.35;;;;;;;;;;7378815;19;19999;-72
2022/03/08 00:22:24;;;;;;;14.02;7.70;;;;;;;;;;7377637;19;20524;-74
2022/03/08 00:24:49;;;;;;;16.15;8.88;;;;;;;;;;7373999;19;20379;-75
2022/03/08 00:27:14;;;;;;;18.58;9.02;;;;;;;;;;7375918;19;19999;-72
2022/03/08 00:29:39;;;;;;;15.38;8.25;;;;;;;;;;7381748;19;20017;-75
2022/03/08 00:32:05;;;;;;;16.75;8.10;;;;;;;;;;7375827;19;20364;-77
2022/03/08 00:34:30;;;;;;;17.92;8.27;;;;;;;;;;7378100;19;20423;-76
2022/03/08 00:36:55;;;;;;;16.50;8.02;;;;;;;;;;7383639;19;20018;-76
2022/03/08 00:39:21;;;;;;;16.55;8.23;;;;;;;;;;7373021;19;20014;-73
2022/03/08 00:41:46;;;;;;;13.43;7.93;;;;;;;;;;7375404;19;20033;-73
2022/03/08 00:44:11;;;;;;;16.80;8.82;;;;;;;;;;7382661;19;20401;-75
2022/03/08 00:46:36;;;;;;;16.70;9.10;;;;;;;;;;7373268;19;20738;-74
2022/03/08 00:49:02;;;;;;;16.25;8.25;;;;;;;;;;7382222;19;20014;-75
2022/03/08 00:51:27;;;;;;;15.48;9.02;;;;;;;;;;7373614;19;20005;-73
2022/03/08 00:53:52;;;;;;;14.73;8.50;;;;;;;;;;7370263;19;20014;-73
2022/03/08 00:56:17;;;;;;;16.55;8.82;;;;;;;;;;7376997;19;20007;-79
2022/03/08 00:58:43;;;;;;;15.23;8.10;;;;;;;;;;7375168;19;20068;-73
2022/03/08 01:01:08;;;;;;;16.35;8.40;;;;;;;;;;7371283;19;20091;-75
2022/03/08 01:03:33;;;;;;;16.45;8.35;;;;;;;;;;7380505;19;20515;-72
2022/03/08 01:05:58;;;;;;;14.10;8.25;;;;;;;;;;7373990;19;20022;-72
2022/03/08 01:08:24;;;;;;;19.30;8.63;;;;;;;;;;7371937;19;20013;-76
2022/03/08 01:10:49;;;;;;;17.23;8.90;;;;;;;;;;7375592;19;20022;-74
2022/03/08 01:13:14;;;;;;;15.10;8.48;;;;;;;;;;7373229;19;20407;-76
2022/03/08 01:15:40;;;;;;;15.95;8.43;;;;;;;;;;7370495;19;20416;-74
2022/03/08 01:18:05;;;;;;;16.85;8.60;;;;;;;;;;7376291;19;20018;-74
2022/03/08 01:20:30;;;;;;;18.05;8.40;;;;;;;;;;7380199;19;20426;-74
2022/03/08 01:22:55;;;;;;;16.83;8.68;;;;;;;;;;7363949;19;20022;-76
2022/03/08 01:25:21;;;;;;;15.93;8.45;;;;;;;;;;7377913;19;20019;-76
2022/03/08 01:27:46;;;;;;;17.77;8.25;;;;;;;;;;7371028;19;20018;-73
2022/03/08 01:30:13;;;;;;;16.45;9.02;;;;;;;;;;7370448;19;20361;-72
2022/03/08 01:32:38;;;;;;;18.52;9.30;;;;;;;;;;7381349;19;20074;-75
2022/03/08 01:35:04;;;;;;;15.43;8.90;;;;;;;;;;7377577;19;20019;-75
2022/03/08 01:37:29;;;;;;;13.80;8.05;;;;;;;;;;7371495;19;20042;-74
2022/03/08 01:39:54;;;;;;;17.45;9.13;;;;;;;;;;7379178;19;20361;-73
2022/03/08 01:42:20;;;;;;;17.52;8.68;;;;;;;;;;7375218;19;20030;-75
2022/03/08 01:44:46;;;;;;;19.23;9.25;;;;;;;;;;7367000;19;19994;-76
2022/03/08 01:47:15;;;;;;;14.65;7.53;;;;;;;;;;7376400;19;20024;-77
2022/03/08 01:49:40;;;;;;;16.63;8.70;;;;;;;;;;7380390;19;20018;-76
2022/03/08 01:52:06;;;;;;;17.05;9.13;;;;;;;;;;7371414;19;20015;-72
2022/03/08 01:54:31;;;;;;;17.42;9.13;;;;;;;;;;7378249;19;20007;-73
2022/03/08 01:56:56;;;;;;;15.07;8.48;;;;;;;;;;7343781;19;20459;-72
2022/03/08 01:59:22;;;;;;;14.43;8.75;;;;;;;;;;7360991;19;20006;-73
2022/03/08 02:01:47;;;;;;;17.77;9.50;;;;;;;;;;7372910;19;20458;-74
2022/03/08 02:04:12;;;;;;;16.20;8.35;;;;;;;;;;7372034;19;20360;-75
2022/03/08 02:06:37;;;;;;;18.10;8.73;;;;;;;;;;7371914;19;20310;-72
2022/03/08 02:09:02;;;;;;;15.68;8.02;;;;;;;;;;7377766;19;20043;-76
2022/03/08 02:11:29;;;;;;;18.70;9.45;;;;;;;;;;7377475;19;20034;-77
2022/03/08 02:13:55;;;;;;;16.67;9.10;;;;;;;;;;7379546;19;20039;-77
2022/03/08 02:16:20;;;;;;;18.48;9.55;;;;;;;;;;7381741;19;20493;-73
2022/03/08 02:18:45;;;;;;;15.43;8.88;;;;;;;;;;7378585;19;20086;-73
2022/03/08 02:21:11;;;;;;;16.20;9.13;;;;;;;;;;7379163;19;20017;-73
2022/03/08 02:23:36;;;;;;;16.95;8.40;;;;;;;;;;7383019;19;20377;-72
2022/03/08 02:26:02;;;;;;;17.85;8.75;;;;;;;;;;7373115;19;20343;-77
2022/03/08 02:28:27;;;;;;;21.30;9.18;;;;;;;;;;7382238;19;20014;-77
2022/03/08 02:30:53;;;;;;;16.13;8.57;;;;;;;;;;7384116;19;20002;-74
2022/03/08 02:33:18;;;;;;;14.93;8.55;;;;;;;;;;7379340;19;20011;-78
2022/03/08 02:35:44;;;;;;;13.77;8.10;;;;;;;;;;7381566;19;20118;-73
2022/03/08 02:38:09;;;;;;;20.00;9.27;;;;;;;;;;7381539;19;20007;-72
2022/03/08 02:40:35;;;;;;;16.35;8.55;;;;;;;;;;7382782;19;20010;-77
2022/03/08 02:43:03;;;;;;;15.57;8.52;;;;;;;;;;7376342;19;19990;-78
2022/03/08 02:45:28;;;;;;;15.40;8.18;;;;;;;;;;7381194;19;20018;-76
2022/03/08 02:47:53;;;;;;;15.43;9.20;;;;;;;;;;7384894;19;19998;-72
2022/03/08 02:50:19;;;;;;;19.48;8.80;;;;;;;;;;7377558;19;20017;-73
2022/03/08 02:52:46;;;;;;;14.68;8.68;;;;;;;;;;7382547;19;20102;-78
2022/03/08 02:55:12;;;;;;;15.82;8.25;;;;;;;;;;7380429;19;20029;-73
2022/03/08 02:57:38;;;;;;;14.95;7.85;;;;;;;;;;7374181;19;19998;-74
2022/03/08 03:00:04;;;;;;;14.98;8.77;;;;;;;;;;7376723;19;20505;-73
2022/03/08 03:02:29;;;;;;;17.33;8.70;;;;;;;;;;7373213;19;20433;-72
2022/03/08 03:04:55;;;;;;;16.10;8.65;;;;;;;;;;7376825;19;20019;-76
2022/03/08 03:07:21;;;;;;;14.38;8.68;;;;;;;;;;7377705;19;20102;-76
2022/03/08 03:09:47;;;;;;;21.60;8.30;;;;;;;;;;7380764;19;20021;-76
2022/03/08 03:12:12;;;;;;;14.60;8.23;;;;;;;;;;7369767;19;19999;-75
2022/03/08 03:14:37;;;;;;;16.05;9.00;;;;;;;;;;7381127;19;20006;-74
2022/03/08 03:17:03;;;;;;;17.88;8.30;;;;;;;;;;7376210;19;19999;-73
2022/03/08 03:19:28;;;;;;;14.15;8.15;;;;;;;;;;7372561;19;20044;-73
2022/03/08 03:21:53;;;;;;;15.23;8.43;;;;;;;;;;7384221;19;20003;-76
2022/03/08 03:24:18;;;;;;;14.80;8.13;;;;;;;;;;7381321;19;20010;-72
2022/03/08 03:26:44;;;;;;;15.13;8.93;;;;;;;;;;7367829;19;20478;-74
2022/03/08 03:29:09;;;;;;;16.92;8.45;;;;;;;;;;7380887;19;20034;-75
2022/03/08 03:31:34;;;;;;;15.82;8.25;;;;;;;;;;7374968;19;20028;-73
2022/03/08 03:33:59;;;;;;;16.65;8.30;;;;;;;;;;7382711;19;20033;-72
2022/03/08 03:36:24;;;;;;;17.60;8.35;;;;;;;;;;7380492;19;20010;-72
2022/03/08 03:38:50;;;;;;;16.55;8.15;;;;;;;;;;7372193;19;19994;-73
2022/03/08 03:41:15;;;;;;;15.52;8.18;;;;;;;;;;7379590;19;20032;-78
2022/03/08 03:43:40;;;;;;;15.82;9.05;;;;;;;;;;7379778;19;20011;-74
2022/03/08 03:46:06;;;;;;;16.98;8.55;;;;;;;;;;7372477;19;20305;-72
2022/03/08 03:48:31;;;;;;;16.77;8.00;;;;;;;;;;7382822;19;20442;-72
2022/03/08 03:50:56;;;;;;;15.63;8.20;;;;;;;;;;7384330;19;20014;-73
2022/03/08 03:53:22;;;;;;;13.63;7.70;;;;;;;;;;7375505;19;20410;-73
2022/03/08 03:55:47;;;;;;;17.40;8.52;;;;;;;;;;7377167;19;20021;-73
2022/03/08 03:58:12;;;;;;;15.10;8.38;;;;;;;;;;7373614;19;20357;-75
2022/03/08 04:00:37;;;;;;;17.13;7.97;;;;;;;;;;7374693;19;20538;-75
2022/03/08 04:03:02;;;;;;;19.52;8.73;;;;;;;;;;7377713;19;20108;-73
2022/03/08 04:05:29;;;;;;;14.55;7.68;;;;;;;;;;7376873;19;20010;-73
2022/03/08 04:07:54;;;;;;;15.43;8.35;;;;;;;;;;7374613;19;20015;-73
2022/03/08 04:10:19;;;;;;;19.27;8.43;;;;;;;;;;7377722;19;20026;-75
2022/03/08 04:12:44;;;;;;;15.23;7.80;;;;;;;;;;7375385;19;20363;-76
2022/03/08 04:15:10;;;;;;;15.80;8.38;;;;;;;;;;7371986;19;20018;-74
2022/03/08 04:17:35;;;;;;;15.55;7.28;;;;;;;;;;7381980;19;20565;-75
2022/03/08 04:20:01;;;;;;;16.30;7.68;;;;;;;;;;7380837;19;20355;-73
2022/03/08 04:22:26;;;;;;;15.32;8.63;;;;;;;;;;7375289;19;20015;-75
2022/03/08 04:24:51;;;;;;;16.63;8.20;;;;;;;;;;7376075;19;20022;-74
2022/03/08 04:27:16;;;;;;;16.13;8.32;;;;;;;;;;7372810;19;20018;-77
2022/03/08 04:29:41;;;;;;;13.75;7.65;;;;;;;;;;7373241;19;20596;-75
2022/03/08 04:32:07;;;;;;;15.52;7.93;;;;;;;;;;7380257;19;20026;-72
2022/03/08 04:34:32;;;;;;;17.50;8.10;;;;;;;;;;7380236;19;20035;-74
2022/03/08 04:36:57;;;;;;;15.38;8.05;;;;;;;;;;7373959;19;20029;-76
2022/03/08 04:39:22;;;;;;;16.77;8.40;;;;;;;;;;7380253;19;20014;-75
2022/03/08 04:41:47;;;;;;;16.00;8.23;;;;;;;;;;7375272;19;20026;-76
2022/03/08 04:44:13;;;;;;;15.00;8.35;;;;;;;;;;7371720;19;20281;-75
2022/03/08 04:46:38;;;;;;;15.30;8.48;;;;;;;;;;7378489;19;20011;-73
2022/03/08 04:49:03;;;;;;;20.17;8.40;;;;;;;;;;7376453;19;20003;-77
2022/03/08 04:51:28;;;;;;;18.38;8.32;;;;;;;;;;7377753;19;20412;-75
2022/03/08 04:53:53;;;;;;;13.63;8.23;;;;;;;;;;7378028;19;20006;-74
2022/03/08 04:56:19;;;;;;;13.75;7.93;;;;;;;;;;7373785;19;20014;-73
2022/03/08 04:58:44;;;;;;;16.52;8.50;;;;;;;;;;7371380;19;20011;-75
2022/03/08 05:01:09;;;;;;;14.75;8.20;;;;;;;;;;7380815;19;20010;-74
2022/03/08 05:03:35;;;;;;;14.68;7.85;;;;;;;;;;7372022;19;20006;-73
2022/03/08 05:06:00;;;;;;;20.63;8.15;;;;;;;;;;7372748;19;20413;-72
2022/03/08 05:08:25;;;;;;;14.40;7.78;;;;;;;;;;7376739;19;20014;-72
2022/03/08 05:10:50;;;;;;;14.77;8.07;;;;;;;;;;7371624;19;20015;-76
2022/03/08 05:13:16;;;;;;;15.13;8.30;;;;;;;;;;7374831;19;20006;-76
2022/03/08 05:15:41;;;;;;;15.40;8.50;;;;;;;;;;7378183;19;20010;-72
2022/03/08 05:18:06;;;;;;;16.70;8.40;;;;;;;;;;7354393;19;20746;-76
2022/03/08 05:20:32;;;;;;;19.73;8.55;;;;;;;;;;7367571;19;20574;-75
2022/03/08 05:23:00;;;;;;;15.63;7.68;;;;;;;;;;7372481;19;20007;-72
2022/03/08 05:25:25;;;;;;;14.23;7.75;;;;;;;;;;7363579;19;20010;-73
2022/03/08 05:27:50;;;;;;;15.40;8.20;;;;;;;;;;7360470;19;20016;-75
2022/03/08 05:30:16;;;;;;;15.13;8.73;;;;;;;;;;7373674;19;19999;-72
2022/03/08 05:32:41;;;;;;;17.23;8.40;;;;;;;;;;7377708;19;20770;-77
2022/03/08 05:35:07;;;;;;;17.48;8.30;;;;;;;;;;7367796;19;20014;-72
2022/03/08 05:37:33;;;;;;;15.13;8.55;;;;;;;;;;7375196;19;20026;-73
2022/03/08 05:39:58;;;;;;;14.25;7.70;;;;;;;;;;7375052;19;20014;-74
2022/03/08 05:42:24;;;;;;;16.83;8.25;;;;;;;;;;7364087;19;20034;-74
2022/03/08 05:44:49;;;;;;;15.60;8.40;;;;;;;;;;7375525;19;20014;-74
2022/03/08 05:47:14;;;;;;;17.45;8.43;;;;;;;;;;7369274;19;19999;-74
2022/03/08 05:49:39;;;;;;;17.42;8.00;;;;;;;;;;7360408;19;20565;-73
2022/03/08 05:52:05;;;;;;;14.35;8.02;;;;;;;;;;7375622;19;20007;-72
2022/03/08 05:54:30;;;;;;;15.45;7.78;;;;;;;;;;7376794;19;20018;-78
2022/03/08 05:56:55;;;;;;;19.15;8.52;;;;;;;;;;7361976;19;19994;-75
2022/03/08 05:59:20;;;;;;;16.65;8.57;;;;;;;;;;7361125;19;20009;-74
2022/03/08 06:01:46;;;;;;;13.68;8.38;;;;;;;;;;7360168;19;20078;-76
2022/03/08 06:04:11;;;;;;;16.52;9.05;;;;;;;;;;7373176;19;20462;-73
2022/03/08 06:06:36;;;;;;;16.45;8.88;;;;;;;;;;7356450;19;20482;-73
2022/03/08 06:09:01;;;;;;;16.60;8.00;;;;;;;;;;7374770;19;20002;-72
2022/03/08 06:11:26;;;;;;;17.45;8.82;;;;;;;;;;7373597;19;20014;-73
2022/03/08 06:13:52;;;;;;;17.48;8.55;;;;;;;;;;7370924;19;20023;-72
2022/03/08 06:16:17;;;;;;;15.15;8.32;;;;;;;;;;7369235;19;20029;-73
2022/03/08 06:18:42;;;;;;;15.80;8.55;;;;;;;;;;7371638;19;20565;-75
2022/03/08 06:21:07;;;;;;;13.98;8.38;;;;;;;;;;7368952;19;20015;-72
2022/03/08 06:23:33;;;;;;;14.60;7.68;;;;;;;;;;7366082;19;20037;-73
2022/03/08 06:25:58;;;;;;;15.00;8.05;;;;;;;;;;7370586;19;20070;-74
2022/03/08 06:28:24;;;;;;;18.13;7.50;;;;;;;;;;7367055;19;20490;-75
2022/03/08 06:30:49;;;;;;;15.98;8.73;;;;;;;;;;7371006;19;19999;-73
2022/03/08 06:33:14;;;;;;;17.70;9.02;;;;;;;;;;7371303;19;20018;-74
2022/03/08 06:35:39;;;;;;;16.77;8.80;;;;;;;;;;7308221;19;20371;-74
2022/03/08 06:38:04;;;;;;;19.75;8.65;;;;;;;;;;7352342;19;20026;-74
2022/03/08 06:40:30;;;;;;;16.63;8.23;;;;;;;;;;7350431;19;20338;-73
2022/03/08 06:42:55;;;;;;;13.48;7.82;;;;;;;;;;7356681;19;20007;-72
2022/03/08 06:45:20;;;;;;;16.75;8.00;;;;;;;;;;7356777;19;20325;-72
2022/03/08 06:47:45;;;;;;;14.43;7.80;;;;;;;;;;7370144;19;20007;-74
2022/03/08 06:50:11;;;;;;;16.90;8.70;;;;;;;;;;7366779;19;20002;-74
2022/03/08 06:52:36;;;;;;;15.27;8.10;;;;;;;;;;7369646;19;20401;-72
2022/03/08 06:55:01;;;;;;;16.98;9.13;;;;;;;;;;7375195;19;20009;-75
2022/03/08 06:57:26;;;;;;;15.63;8.18;;;;;;;;;;7364343;19;19995;-73
2022/03/08 06:59:52;;;;;;;17.48;8.93;;;;;;;;;;7362073;19;20511;-73
2022/03/08 07:02:17;;;;;;;17.05;8.70;;;;;;;;;;7376796;19;20448;-74
2022/03/08 07:04:42;;;;;;;15.40;8.43;;;;;;;;;;7378277;19;20410;-71
2022/03/08 07:07:08;;;;;;;16.65;8.73;;;;;;;;;;7374534;19;20007;-73
2022/03/08 07:09:33;;;;;;;14.07;7.45;;;;;;;;;;7373438;19;20014;-74
2022/03/08 07:11:58;;;;;;;16.70;8.20;;;;;;;;;;7371592;19;20026;-75
2022/03/08 07:14:23;;;;;;;18.80;8.50;;;;;;;;;;7371477;19;20447;-71
2022/03/08 07:16:48;;;;;;;16.38;7.78;;;;;;;;;;7365966;19;20529;-73
2022/03/08 07:19:14;;;;;;;17.45;8.40;;;;;;;;;;7364770;19;20011;-71
2022/03/08 07:21:39;;;;;;;24.75;8.98;;;;;;;;;;7378648;19;20402;-72
2022/03/08 07:24:05;;;;;;;18.10;9.30;;;;;;;;;;7367120;19;20010;-71
2022/03/08 07:26:30;;;;;;;14.93;9.15;;;;;;;;;;7359341;19;20006;-73
2022/03/08 07:28:55;;;;;;;16.60;8.50;;;;;;;;;;7373821;19;20470;-74
2022/03/08 07:31:20;;;;;;;14.27;8.18;;;;;;;;;;7364090;19;20267;-74
2022/03/08 07:33:46;;;;;;;14.02;8.35;;;;;;;;;;7381458;19;20010;-74
2022/03/08 07:36:11;;;;;;;14.75;8.13;;;;;;;;;;7373998;19;20014;-75
2022/03/08 07:38:36;;;;;;;18.83;8.95;;;;;;;;;;7373200;19;20014;-74
2022/03/08 07:41:02;;;;;;;15.73;8.25;;;;;;;;;;7368950;19;20330;-75
2022/03/08 07:43:28;;;;;;;15.90;8.13;;;;;;;;;;7372120;19;20037;-75
2022/03/08 07:45:53;;;;;;;16.92;8.30;;;;;;;;;;7364860;19;20006;-74
2022/03/08 07:48:18;;;;;;;14.55;8.68;;;;;;;;;;7375566;19;20074;-75
2022/03/08 07:50:43;;;;;;;14.68;8.25;;;;;;;;;;7371557;19;20126;-75
2022/03/08 07:53:09;;;;;;;14.60;8.07;;;;;;;;;;7367481;19;20024;-74
2022/03/08 07:55:34;;;;;;;14.75;8.05;;;;;;;;;;7367415;19;20262;-74
2022/03/08 07:58:00;;;;;;;15.75;9.18;;;;;;;;;;7367655;19;20457;-74
2022/03/08 08:00:25;;;;;;;16.30;8.25;;;;;;;;;;7365172;19;20498;-74
2022/03/08 08:02:51;;;;;;;14.73;7.85;;;;;;;;;;7374029;19;19995;-74
2022/03/08 08:05:17;;;;;;;17.33;8.95;;;;;;;;;;7362321;19;20396;-74
2022/03/08 08:07:43;;;;;;;15.00;8.35;;;;;;;;;;7370588;19;20071;-74
2022/03/08 08:10:08;;;;;;;15.32;7.63;;;;;;;;;;7368480;19;20022;-74
2022/03/08 08:12:34;;;;;;;15.15;8.30;;;;;;;;;;7359775;19;20470;-75
2022/03/08 08:14:59;;;;;;;14.95;8.65;;;;;;;;;;7368068;19;20495;-75
2022/03/08 08:17:25;;;;;;;13.90;7.72;;;;;;;;;;7376919;19;20001;-74
2022/03/08 08:19:50;;;;;;;15.95;8.10;;;;;;;;;;7366482;19;20339;-74
2022/03/08 08:22:15;;;;;;;16.27;8.35;;;;;;;;;;7373419;19;20003;-75
2022/03/08 08:24:40;;;;;;;14.02;7.68;;;;;;;;;;7371831;19;20015;-75
2022/03/08 08:27:06;;;;;;;15.00;7.75;;;;;;;;;;7354949;19;20423;-75
2022/03/08 08:29:31;;;;;;;13.38;7.85;;;;;;;;;;7371253;19;20018;-75
2022/03/08 08:31:57;;;;;;;17.83;7.40;;;;;;;;;;7366285;19;20002;-75
2022/03/08 08:34:22;;;;;;;19.30;8.18;;;;;;;;;;7368893;19;20014;-75
2022/03/08 08:36:47;;;;;;;14.00;8.27;;;;;;;;;;7370203;19;20462;-75
2022/03/08 08:39:14;;;;;;;16.13;8.57;;;;;;;;;;7364956;19;20002;-75
2022/03/08 08:41:40;;;;;;;13.25;7.93;;;;;;;;;;7363715;19;20037;-75
2022/03/08 08:44:05;;;;;;;12.25;7.35;;;;;;;;;;7356748;19;20002;-76
2022/03/08 08:46:30;;;;;;;14.70;8.43;;;;;;;;;;7361258;19;20066;-76
2022/03/08 08:48:55;;;;;;;15.77;8.13;;;;;;;;;;7370605;19;20250;-76
2022/03/08 08:51:20;;;;;;;14.10;7.78;;;;;;;;;;7365278;19;20270;-76
2022/03/08 08:53:45;;;;;;;18.35;9.38;;;;;;;;;;7364122;19;20353;-76
2022/03/08 08:56:11;;;;;;;13.55;7.88;;;;;;;;;;7359973;19;20543;-76
2022/03/08 08:58:36;;;;;;;13.35;7.18;;;;;;;;;;7370731;19;20495;-76
2022/03/08 09:01:01;;;;;;;12.95;6.85;;;;;;;;;;7367472;19;20451;-77
2022/03/08 09:03:26;;;;;;;13.52;7.40;;;;;;;;;;7369248;19;20050;-75
2022/03/08 09:05:52;;;;;;;14.68;7.45;;;;;;;;;;7372022;19;20074;-76
2022/03/08 09:08:23;;;;;;;12.20;7.57;;;;;;;;;;7372889;19;20074;-76
2022/03/08 09:10:49;;;;;;;12.73;7.30;;;;;;;;;;7376629;19;20295;-76
2022/03/08 09:13:14;;;;;;;14.43;7.30;;;;;;;;;;7378556;19;20078;-76
2022/03/08 09:15:40;;;;;;;12.70;7.32;;;;;;;;;;7368990;19;20360;-75
2022/03/08 09:18:07;;;;;;;10.95;7.15;;;;;;;;;;7379466;19;20382;-76
2022/03/08 09:20:32;;;;;;;12.90;6.95;;;;;;;;;;7375686;19;20082;-76
2022/03/08 09:22:57;;;;;;;11.90;6.97;;;;;;;;;;7374085;19;20035;-75
2022/03/08 09:25:23;;;;;;;12.00;7.35;;;;;;;;;;7368508;19;20603;-75
2022/03/08 09:27:48;;;;;;;13.68;6.88;;;;;;;;;;7372703;19;19999;-75
2022/03/08 09:30:13;;;;;;;12.05;7.28;;;;;;;;;;7366965;19;20629;-76
2022/03/08 09:32:39;;;;;;;12.10;7.03;;;;;;;;;;7378199;19;20003;-75
2022/03/08 09:35:04;;;;;;;12.20;7.32;;;;;;;;;;7370141;19;20368;-75
2022/03/08 09:37:30;;;;;;;12.45;7.05;;;;;;;;;;7377848;19;20089;-75
2022/03/08 09:39:55;;;;;;;12.05;7.10;;;;;;;;;;7378434;19;20332;-75
2022/03/08 09:42:21;;;;;;;11.30;7.10;;;;;;;;;;7368319;19;19999;-76
2022/03/08 09:44:48;;;;;;;12.57;6.95;;;;;;;;;;7374909;19;20044;-76
2022/03/08 09:47:13;;;;;;;13.15;6.63;;;;;;;;;;7379030;19;20052;-76
2022/03/08 09:49:39;;;;;;;10.73;6.80;;;;;;;;;;7369819;19;20018;-76
2022/03/08 09:52:04;;;;;;;12.95;7.03;;;;;;;;;;7377818;19;20354;-75
2022/03/08 09:54:29;;;;;;;12.43;6.90;;;;;;;;;;7378311;19;20011;-75
2022/03/08 09:56:54;;;;;;;11.30;6.60;;;;;;;;;;7365523;19;20002;-74
2022/03/08 09:59:20;;;;;;;12.60;7.18;;;;;;;;;;7375054;19;20013;-75
2022/03/08 10:01:46;;;;;;;15.73;7.63;;;;;;;;;;7378795;19;20034;-74
2022/03/08 10:04:18;;;;;;;13.60;7.68;;;;;;;;;;7372259;19;20010;-75
2022/03/08 10:06:44;;;;;;;13.45;7.72;;;;;;;;;;7371319;19;20404;-75
2022/03/08 10:09:13;;;;;;;12.70;6.55;;;;;;;;;;7370397;19;20007;-75
2022/03/08 10:11:39;;;;;;;12.15;7.00;;;;;;;;;;7360207;19;20009;-74
2022/03/08 10:14:04;;;;;;;10.55;6.18;;;;;;;;;;7367146;19;20018;-75
2022/03/08 10:16:41;;;;;;;11.10;6.65;;;;;;;;;;7369793;19;20002;-74
2022/03/08 10:19:08;;;;;;;10.63;6.45;;;;;;;;;;7361883;19;20043;-75
2022/03/08 10:21:33;;;;;;;12.75;6.78;;;;;;;;;;7363869;19;20566;-75
2022/03/08 10:24:03;;;;;;;15.23;7.57;;;;;;;;;;7368720;19;20345;-75
2022/03/08 10:26:29;;;;;;;12.75;6.57;;;;;;;;;;7356722;19;20082;-75
2022/03/08 10:28:54;;;;;;;10.68;6.20;;;;;;;;;;7384434;19;20007;-75
2022/03/08 10:31:20;;;;;;;13.20;7.35;;;;;;;;;;7383837;19;20006;-76
2022/03/08 10:33:46;;;;;;;14.50;7.47;;;;;;;;;;7375257;19;20354;-75
2022/03/08 10:36:13;;;;;;;11.80;6.18;;;;;;;;;;7378584;19;20545;-74
2022/03/08 10:38:39;;;;;;;11.10;6.70;;;;;;;;;;7386089;19;20089;-75
2022/03/08 10:41:18;;;;;;;13.93;7.20;;;;;;;;;;7374353;19;20402;-75
2022/03/08 10:43:49;;;;;;;12.55;7.03;;;;;;;;;;7385834;19;20068;-74
2022/03/08 10:46:15;;;;;;;11.38;6.63;;;;;;;;;;7377330;19;20026;-75
2022/03/08 10:48:40;;;;;;;10.85;6.28;;;;;;;;;;7371132;19;20443;-74
2022/03/08 10:51:12;;;;;;;10.67;7.00;;;;;;;;;;7384225;19;20010;-73
2022/03/08 10:53:38;;;;;;;10.73;6.88;;;;;;;;;;7376246;19;20244;-75
2022/03/08 10:56:03;;;;;;;11.52;6.93;;;;;;;;;;7380019;19;20355;-75
2022/03/08 10:58:28;;;;;;;12.85;7.03;;;;;;;;;;7381423;19;20062;-74
2022/03/08 11:00:54;;;;;;;13.15;6.53;;;;;;;;;;7377179;19;20078;-75
2022/03/08 11:03:21;;;;;;;10.07;6.55;;;;;;;;;;7381670;19;20009;-75
2022/03/08 11:05:47;;;;;;;11.77;6.80;;;;;;;;;;7385746;19;20010;-74
2022/03/08 11:08:13;;;;;;;12.23;7.30;;;;;;;;;;7375348;19;20006;-76
2022/03/08 11:10:39;;;;;;;14.77;7.13;;;;;;;;;;7380432;19;20001;-75
2022/03/08 11:13:05;;;;;;;13.18;7.20;;;;;;;;;;7383929;19;20094;-75
2022/03/08 11:15:31;;;;;;;10.90;6.50;;;;;;;;;;7373886;19;20437;-75
2022/03/08 11:17:57;;;;;;;12.38;7.20;;;;;;;;;;7383711;19;19998;-74
2022/03/08 11:20:23;;;;;;;11.05;6.90;;;;;;;;;;7384977;19;20245;-74
2022/03/08 11:22:51;;;;;;;10.85;6.70;;;;;;;;;;7373088;19;20018;-75
2022/03/08 11:25:17;;;;;;;12.05;6.93;;;;;;;;;;7375755;19;20014;-75
2022/03/08 11:27:43;;;;;;;11.25;6.75;;;;;;;;;;7372949;19;20061;-74
2022/03/08 11:30:10;;;;;;;12.63;6.72;;;;;;;;;;7361917;19;20010;-74
2022/03/08 11:32:38;;;;;;;11.18;6.90;;;;;;;;;;7372304;19;20697;-74
2022/03/08 11:35:10;;;;;;;10.90;7.03;;;;;;;;;;7372561;19;20040;-75
2022/03/08 11:37:37;;;;;;;12.90;6.85;;;;;;;;;;7366738;19;20025;-74
2022/03/08 11:40:05;;;;;;;12.88;7.10;;;;;;;;;;7374935;19;20370;-73
2022/03/08 11:42:32;;;;;;;14.13;7.88;;;;;;;;;;7360740;19;20453;-74
2022/03/08 11:45:09;;;;;;;10.75;6.85;;;;;;;;;;7364341;19;20034;-75
2022/03/08 11:48:04;;;;;;;14.63;6.78;;;;;;;;;;7372949;19;20018;-75
2022/03/08 11:50:39;;;;;;;12.00;6.53;;;;;;;;;;7361205;19;20633;-74
2022/03/08 11:53:11;;;;;;;10.68;6.18;;;;;;;;;;7362981;19;20018;-75
2022/03/08 11:55:36;;;;;;;10.32;5.80;;;;;;;;;;7365312;19;20461;-75
2022/03/08 11:58:02;;;;;;;11.40;6.40;;;;;;;;;;7370622;19;19995;-74
2022/03/08 12:00:31;;;;;;;11.25;6.80;;;;;;;;;;7379298;19;20266;-75
2022/03/08 12:03:02;;;;;;;11.90;7.10;;;;;;;;;;7378489;19;20382;-75
2022/03/08 12:05:40;;;;;;;12.60;6.57;;;;;;;;;;7371093;19;20429;-74
2022/03/08 12:08:21;;;;;;;13.10;7.55;;;;;;;;;;7380218;19;20011;-74
2022/03/08 12:10:47;;;;;;;15.50;8.02;;;;;;;;;;7377947;19;20022;-74
2022/03/08 12:13:13;;;;;;;10.25;6.72;;;;;;;;;;7373400;19;20033;-74
2022/03/08 12:15:57;;;;;;;11.23;6.35;;;;;;;;;;7380679;19;20034;-74
2022/03/08 12:18:32;;;;;;;13.52;7.65;;;;;;;;;;7377917;19;20057;-74
2022/03/08 12:21:16;;;;;;;14.45;7.00;;;;;;;;;;7382044;19;20007;-74
2022/03/08 12:23:50;;;;;;;12.50;7.53;;;;;;;;;;7384061;19;20026;-74
2022/03/08 12:26:21;;;;;;;12.43;6.70;;;;;;;;;;7355981;19;20043;-75
2022/03/08 12:29:05;;;;;;;13.15;7.55;;;;;;;;;;7379034;19;20432;-74
2022/03/08 12:31:31;;;;;;;12.32;7.38;;;;;;;;;;7377692;19;20382;-74
2022/03/08 12:34:00;;;;;;;12.10;7.10;;;;;;;;;;7374121;19;19999;-75
2022/03/08 12:36:29;;;;;;;11.30;7.15;;;;;;;;;;7373540;19;20041;-73
2022/03/08 12:38:54;;;;;;;12.45;7.70;;;;;;;;;;7373205;19;20016;-74
2022/03/08 12:41:26;;;;;;;13.57;7.38;;;;;;;;;;7360164;19;20923;-74
2022/03/08 12:43:58;;;;;;;16.10;7.90;;;;;;;;;;7373634;19;20000;-73
2022/03/08 12:46:23;;;;;;;11.68;7.28;;;;;;;;;;7370643;19;20380;-74
2022/03/08 12:48:51;;;;;;;12.10;7.47;;;;;;;;;;7367242;19;20003;-75
2022/03/08 12:51:16;;;;;;;11.90;6.88;;;;;;;;;;7374449;19;20010;-74
2022/03/08 12:53:41;;;;;;;13.95;7.75;;;;;;;;;;7372453;19;20648;-74
2022/03/08 12:56:11;;;;;;;16.52;7.55;;;;;;;;;;7351277;19;21104;-74
2022/03/08 12:58:37;;;;;;;12.75;7.25;;;;;;;;;;7367282;19;20016;-75
2022/03/08 13:01:04;;;;;;;12.20;7.70;;;;;;;;;;7359523;19;20026;-74
2022/03/08 13:03:36;;;;;;;11.30;7.20;;;;;;;;;;7370245;19;20034;-75
2022/03/08 13:06:05;;;;;;;14.07;8.23;;;;;;;;;;7365580;19;20007;-75
2022/03/08 13:08:31;;;;;;;11.77;7.40;;;;;;;;;;7360817;19;20042;-75
2022/03/08 13:10:57;;;;;;;11.13;7.38;;;;;;;;;;7367382;19;20474;-75
2022/03/08 13:13:23;;;;;;;11.75;7.47;;;;;;;;;;7367184;19;20003;-74
2022/03/08 13:15:49;;;;;;;10.27;7.05;;;;;;;;;;7357859;19;20550;-75
2022/03/08 13:18:21;;;;;;;12.32;7.22;;;;;;;;;;7370214;19;20022;-75
2022/03/08 13:20:48;;;;;;;12.13;6.45;;;;;;;;;;7372867;19;20053;-75
2022/03/08 13:23:18;;;;;;;13.07;7.03;;;;;;;;;;7362610;19;20029;-75
2022/03/08 13:25:43;;;;;;;12.57;7.40;;;;;;;;;;7366448;19;20091;-74
2022/03/08 13:28:11;;;;;;;11.10;6.15;;;;;;;;;;7364329;19;20019;-74
2022/03/08 13:30:38;;;;;;;14.27;6.68;;;;;;;;;;7362732;19;20018;-74
2022/03/08 13:33:10;;;;;;;11.68;7.40;;;;;;;;;;7370982;19;20349;-76
2022/03/08 13:35:35;;;;;;;9.43;5.85;;;;;;;;;;7365706;19;20482;-74
2022/03/08 13:38:01;;;;;;;10.93;6.40;;;;;;;;;;7365243;19;20002;-74
2022/03/08 13:40:27;;;;;;;10.50;6.32;;;;;;;;;;7364147;19;20014;-75
2022/03/08 13:42:52;;;;;;;11.43;6.63;;;;;;;;;;7367259;19;20023;-75
2022/03/08 13:45:17;;;;;;;11.50;6.88;;;;;;;;;;7360211;19;20027;-75
2022/03/08 13:47:44;;;;;;;10.20;5.95;;;;;;;;;;7369947;19;20022;-75
2022/03/08 13:50:09;;;;;;;12.23;6.68;;;;;;;;;;7361563;19;20014;-75
2022/03/08 13:52:34;;;;;;;10.70;5.60;;;;;;;;;;7366567;19;20090;-75
2022/03/08 13:55:00;;;;;;;11.13;6.00;;;;;;;;;;7369757;19;20462;-75
2022/03/08 13:57:25;;;;;;;10.95;5.75;;;;;;;;;;7355994;19;20239;-74
2022/03/08 13:59:52;;;;;;;10.73;6.32;;;;;;;;;;7370047;19;20082;-75
2022/03/08 14:02:17;;;;;;;10.52;5.47;;;;;;;;;;7393017;19;20069;-75
2022/03/08 14:04:43;;;;;;;11.38;5.95;;;;;;;;;;7385695;19;20018;-76
2022/03/08 14:07:08;;;;;;;10.80;5.57;;;;;;;;;;7380875;19;20467;-75
2022/03/08 14:09:33;;;;;;;8.95;5.40;;;;;;;;;;7383640;19;20010;-75
2022/03/08 14:12:00;;;;;;;11.30;6.25;;;;;;;;;;7372099;19;20023;-76
2022/03/08 14:14:26;;;;;;;9.63;5.25;;;;;;;;;;7383066;19;20025;-76
2022/03/08 14:16:51;;;;;;;9.43;5.40;;;;;;;;;;7381055;19;20531;-76
2022/03/08 14:19:18;;;;;;;11.95;5.63;;;;;;;;;;7374348;19;20031;-75
2022/03/08 14:21:44;;;;;;;11.65;6.18;;;;;;;;;;7382576;19;20037;-75
2022/03/08 14:24:13;;;;;;;9.05;5.53;;;;;;;;;;7386280;19;20026;-75